Audrey — PD9331 — position and weather

sailwx.info

Track history (hours):
 
Tides and Currents Weather Stations Pressure Air Temp Water Temp Dewpoint Dewpoint Depression Visibility Wind Speed Wind Dir Waves Ship Positions

Audrey

Last reported at 2017-Aug-21 02:30 UTC. Time now 2017-Aug-21 02:43 UTC.
Position N 47°33' E 007°39'.

Length 85 m; draft 1.5 m.

Type: Wing in ground effect craft. MMSI: 244660106.

Date/timePositionNaut miles runAvg speedWind from/ knotsBaromVisibWave heightAir tempDewpointWater temp
2017-Aug-21 02:30N 47°33' E 007°39'0 0.0
2017-Aug-21 02:00N 47°33' E 007°39'0 0.0
2017-Aug-21 01:30N 47°33' E 007°39'0 0.0
2017-Aug-21 01:00N 47°33' E 007°39'0 0.0
2017-Aug-21 00:30N 47°33' E 007°39'0 0.0
2017-Aug-21 00:00N 47°33' E 007°39'0 0.0
2017-Aug-20 23:30N 47°33' E 007°39'0 0.0
2017-Aug-20 23:00N 47°33' E 007°39'0 0.0
2017-Aug-20 22:30N 47°33' E 007°39'0 0.0
2017-Aug-20 22:00N 47°33' E 007°39'0 0.0
2017-Aug-20 21:30N 47°33' E 007°39'0 0.0
2017-Aug-20 21:00N 47°33' E 007°39'0 0.0
2017-Aug-20 20:30N 47°33' E 007°39'0 0.0
2017-Aug-20 20:00N 47°33' E 007°39'0 0.0
2017-Aug-20 19:30N 47°33' E 007°39'0 0.0
2017-Aug-20 19:00N 47°33' E 007°39'0 0.0
2017-Aug-20 18:30N 47°33' E 007°39'0 0.0
2017-Aug-20 18:00N 47°33' E 007°39'0 0.0
2017-Aug-20 17:30N 47°33' E 007°39'0 0.0
2017-Aug-20 17:00N 47°33' E 007°39'0 0.0
2017-Aug-20 16:30N 47°33' E 007°39'0 0.0
2017-Aug-20 16:00N 47°33' E 007°39'0 0.0
2017-Aug-20 15:30N 47°33' E 007°39'0 0.0
2017-Aug-20 15:00N 47°33' E 007°39'0 0.0
2017-Aug-20 14:30N 47°33' E 007°39'0 0.0
2017-Aug-20 14:00N 47°33' E 007°39'0 0.0
2017-Aug-20 13:30N 47°33' E 007°39'0 0.0
2017-Aug-20 13:00N 47°33' E 007°39'0 0.0
2017-Aug-20 12:30N 47°33' E 007°39'0 0.0
2017-Aug-20 12:00N 47°33' E 007°39'0 0.0
2017-Aug-20 11:30N 47°33' E 007°39'0 0.0
2017-Aug-20 11:00N 47°33' E 007°39'0 0.0
2017-Aug-20 10:30N 47°33' E 007°39'0 0.0
2017-Aug-20 10:00N 47°33' E 007°39'0 0.0
2017-Aug-20 09:30N 47°33' E 007°39'0 0.0
2017-Aug-20 09:00N 47°33' E 007°39'0 0.0
2017-Aug-20 08:30N 47°33' E 007°39'0 0.0
2017-Aug-20 08:00N 47°33' E 007°39'0 0.0
2017-Aug-20 07:30N 47°33' E 007°39'0 0.0
2017-Aug-20 07:00N 47°33' E 007°39'0 0.0
2017-Aug-20 06:30N 47°33' E 007°39'0 0.0
2017-Aug-20 06:00N 47°33' E 007°39'0 0.0
2017-Aug-20 05:30N 47°33' E 007°39'0 0.0
2017-Aug-20 05:00N 47°33' E 007°39'0 0.0
2017-Aug-20 04:30N 47°33' E 007°39'0 0.0
2017-Aug-20 04:00N 47°33' E 007°39'0 0.0
2017-Aug-20 03:30N 47°33' E 007°39'0 0.0
2017-Aug-20 03:00N 47°33' E 007°39'0 0.0
2017-Aug-20 02:30N 47°33' E 007°39'0 0.0
2017-Aug-20 02:00N 47°33' E 007°39'0 0.0
2017-Aug-20 01:30N 47°33' E 007°39'0 0.0
2017-Aug-20 01:00N 47°33' E 007°39'0 0.0
2017-Aug-20 00:30N 47°33' E 007°39'0 0.0
2017-Aug-20 00:00N 47°33' E 007°39'0 0.0
2017-Aug-19 23:30N 47°33' E 007°39'0 0.0
2017-Aug-19 23:00N 47°33' E 007°39'0 0.0
2017-Aug-19 22:30N 47°33' E 007°39'0 0.0
2017-Aug-19 22:00N 47°33' E 007°39'0 0.0
2017-Aug-19 21:30N 47°33' E 007°39'0 0.0
2017-Aug-19 21:00N 47°33' E 007°39'0 0.0
2017-Aug-19 20:30N 47°33' E 007°39'0 0.0
2017-Aug-19 20:00N 47°33' E 007°39'0 0.0
2017-Aug-19 19:30N 47°33' E 007°39'0 0.0
2017-Aug-19 19:00N 47°33' E 007°39'0 0.0
2017-Aug-19 18:30N 47°33' E 007°39'0 0.0
2017-Aug-19 18:00N 47°33' E 007°39'0 0.0
2017-Aug-19 17:30N 47°33' E 007°39'0 0.0
2017-Aug-19 17:00N 47°33' E 007°39'1 1.1
2017-Aug-19 16:30N 47°33' E 007°39'1 2.3
2017-Aug-19 16:00N 47°33' E 007°37'2 4.2
2017-Aug-19 15:30N 47°35' E 007°35'4 8.0
2017-Aug-19 15:00N 47°39' E 007°32'100 3.2
2017-Aug-18 08:01N 49°12' E 008°23'0 5.6
2017-Aug-18 08:00N 49°13' E 008°23'100 2.5
2017-Aug-16 15:49N 50°41' E 007°11'3 5.7
2017-Aug-16 15:20N 50°43' E 007°08'2 5.8
2017-Aug-16 15:00N 50°45' E 007°06'6 5.8
2017-Aug-16 14:02N 50°49' E 007°01'2 5.2
2017-Aug-16 13:43N 50°50' E 006°59'2 5.6
2017-Aug-16 13:25N 50°51' E 007°01'2 4.5
2017-Aug-16 12:53N 50°54' E 007°02'2 5.5
2017-Aug-16 12:30N 50°54' E 006°59'3 6.0
2017-Aug-16 11:59N 50°57' E 006°59'10 4.6
2017-Aug-16 09:57N 51°06' E 006°53'3 5.7
2017-Aug-16 09:28N 51°09' E 006°51'1 2.5
2017-Aug-16 08:59N 51°09' E 006°49'2 4.7
2017-Aug-16 08:30N 51°11' E 006°48'3 5.2
2017-Aug-16 08:00N 51°12' E 006°44'2 3.3
2017-Aug-16 07:30N 51°13' E 006°45'2 4.3
2017-Aug-16 07:00N 51°15' E 006°44'4 4.8
2017-Aug-16 06:17N 51°19' E 006°44'3 5.7
2017-Aug-16 05:41N 51°21' E 006°40'2 4.1
2017-Aug-16 05:19N 51°22' E 006°41'2 5.7
2017-Aug-16 05:00N 51°23' E 006°44'3 5.3
2017-Aug-16 04:30N 51°26' E 006°43'3 5.3
2017-Aug-16 04:00N 51°28' E 006°42'2 3.2
2017-Aug-16 03:30N 51°30' E 006°43'2 4.0
2017-Aug-16 03:00N 51°32' E 006°41'0 0.0
2017-Aug-16 02:30N 51°32' E 006°41'0 0.0
2017-Aug-16 02:00N 51°32' E 006°41'0 0.0
2017-Aug-16 01:30N 51°32' E 006°41'0 0.0
2017-Aug-16 01:00N 51°32' E 006°41'0 0.0
2017-Aug-16 00:30N 51°32' E 006°41'0 0.0
2017-Aug-16 00:00N 51°32' E 006°41'0 0.0
2017-Aug-15 23:30N 51°32' E 006°41'0 0.0
2017-Aug-15 23:00N 51°32' E 006°41'0 0.0
2017-Aug-15 22:30N 51°32' E 006°41'0 0.0
2017-Aug-15 22:00N 51°32' E 006°41'0 0.0
2017-Aug-15 21:30N 51°32' E 006°41'0 0.0
2017-Aug-15 21:00N 51°32' E 006°41'0 0.0
2017-Aug-15 20:30N 51°32' E 006°41'0 0.0
2017-Aug-15 20:00N 51°32' E 006°41'0 0.0
2017-Aug-15 19:30N 51°32' E 006°41'1 1.6
2017-Aug-15 19:00N 51°32' E 006°41'3 3.8
2017-Aug-15 18:18N 51°34' E 006°37'2 5.3
2017-Aug-15 17:59N 51°35' E 006°36'3 6.3
2017-Aug-15 17:29N 51°39' E 006°36'3 6.0
2017-Aug-15 16:59N 51°40' E 006°32'3 5.7
2017-Aug-15 16:29N 51°41' E 006°28'3 6.3
2017-Aug-15 16:00N 51°43' E 006°24'2 4.5
2017-Aug-15 15:30N 51°45' E 006°22'3 6.1
2017-Aug-15 15:00N 51°47' E 006°19'3 6.9
2017-Aug-15 14:30N 51°50' E 006°15'3 6.9
2017-Aug-15 14:00N 51°51' E 006°09'4 7.1
2017-Aug-15 13:30N 51°52' E 006°04'3 6.0
2017-Aug-15 13:00N 51°52' E 005°59'3 5.7
2017-Aug-15 12:30N 51°52' E 005°55'3 5.8
2017-Aug-15 12:00N 51°52' E 005°50'4 7.1
2017-Aug-15 11:30N 51°53' E 005°45'4 7.2
2017-Aug-15 11:00N 51°54' E 005°39'4 7.3
2017-Aug-15 10:29N 51°54' E 005°33'3 7.3
2017-Aug-15 10:00N 51°53' E 005°27'4 7.3
2017-Aug-15 09:30N 51°50' E 005°24'3 5.9
2017-Aug-15 09:00N 51°49' E 005°20'3 6.8
2017-Aug-15 08:30N 51°49' E 005°14'4 7.2
2017-Aug-15 08:00N 51°49' E 005°09'4 7.2
2017-Aug-15 07:30N 51°49' E 005°03'4 8.5
2017-Aug-15 07:00N 51°50' E 004°56'4 8.3
2017-Aug-15 06:30N 51°49' E 004°49'4 8.2
2017-Aug-15 06:01N 51°49' E 004°43'4 8.5
2017-Aug-15 05:30N 51°48' E 004°36'4 7.8
2017-Aug-15 05:00N 51°50' E 004°30'4 8.0
2017-Aug-15 04:30N 51°51' E 004°24'4 7.8
2017-Aug-15 04:00N 51°52' E 004°18'3 6.2
2017-Aug-15 03:30N 51°54' E 004°14'0 0.7
2017-Aug-15 03:00N 51°54' E 004°14'0 0.0
2017-Aug-15 02:30N 51°54' E 004°14'0 0.0
2017-Aug-15 02:00N 51°54' E 004°14'0 0.0
2017-Aug-15 01:30N 51°54' E 004°14'0 0.0
2017-Aug-15 01:00N 51°54' E 004°14'0 0.0
2017-Aug-15 00:30N 51°54' E 004°14'0 0.0
2017-Aug-15 00:00N 51°54' E 004°14'0 0.0
2017-Aug-14 23:30N 51°54' E 004°14'0 0.0
2017-Aug-14 23:00N 51°54' E 004°14'0 0.0
2017-Aug-14 22:30N 51°54' E 004°14'0 0.0
2017-Aug-14 22:00N 51°54' E 004°14'0 0.0
2017-Aug-14 21:30N 51°54' E 004°14'0 0.0
2017-Aug-14 21:00N 51°54' E 004°14'0 0.0
2017-Aug-14 20:30N 51°54' E 004°14'0 0.0
2017-Aug-14 20:00N 51°54' E 004°14'0 0.0
2017-Aug-14 19:30N 51°54' E 004°14'0 0.0
2017-Aug-14 19:00N 51°54' E 004°14'0 0.0
2017-Aug-14 18:30N 51°54' E 004°14'0 0.0
2017-Aug-14 18:00N 51°54' E 004°14'0 0.0
2017-Aug-14 17:30N 51°54' E 004°14'0 0.0
2017-Aug-14 17:00N 51°54' E 004°14'0 0.0
2017-Aug-14 16:30N 51°54' E 004°14'0 0.0
2017-Aug-14 16:00N 51°54' E 004°14'0 0.0
2017-Aug-14 15:30N 51°54' E 004°14'0 0.8
2017-Aug-14 15:00N 51°54' E 004°14'3 6.0
2017-Aug-14 14:30N 51°52' E 004°18'3 5.5
2017-Aug-14 14:00N 51°54' E 004°21'4 8.4
2017-Aug-14 13:30N 51°54' E 004°28'1 2.2
2017-Aug-14 13:00N 51°55' E 004°29'0 0.0
2017-Aug-14 12:30N 51°55' E 004°29'0 0.0
2017-Aug-14 12:00N 51°55' E 004°29'0 0.0
2017-Aug-14 11:30N 51°55' E 004°29'0 0.0
2017-Aug-14 11:00N 51°55' E 004°29'0 0.0
2017-Aug-14 10:30N 51°55' E 004°29'0 0.0
2017-Aug-14 10:00N 51°55' E 004°29'0 0.0
2017-Aug-14 09:30N 51°55' E 004°29'0 0.0
2017-Aug-14 09:00N 51°55' E 004°29'0 0.0
2017-Aug-14 08:30N 51°55' E 004°29'0 0.0
2017-Aug-14 08:00N 51°55' E 004°29'0 0.0
2017-Aug-14 07:30N 51°55' E 004°29'0 0.0
2017-Aug-14 07:00N 51°55' E 004°29'0 0.0
2017-Aug-14 06:30N 51°55' E 004°29'0 0.0
2017-Aug-14 06:00N 51°55' E 004°29'0 0.0
2017-Aug-14 05:30N 51°55' E 004°29'0 0.0
2017-Aug-14 05:00N 51°55' E 004°29'0 0.0
2017-Aug-14 04:30N 51°55' E 004°29'0 0.0
2017-Aug-14 04:00N 51°55' E 004°29'0 0.0
2017-Aug-14 03:30N 51°55' E 004°29'0 0.0
2017-Aug-14 03:00N 51°55' E 004°29'0 0.0
2017-Aug-14 02:30N 51°55' E 004°29'0 0.0
2017-Aug-14 02:00N 51°55' E 004°29'0 0.0
2017-Aug-14 01:30N 51°55' E 004°29'0 0.0
2017-Aug-14 01:00N 51°55' E 004°29'0 0.0
2017-Aug-14 00:30N 51°55' E 004°29'0 0.0
2017-Aug-14 00:00N 51°55' E 004°29'0 0.0
2017-Aug-13 23:30N 51°55' E 004°29'0 0.0
2017-Aug-13 23:00N 51°55' E 004°29'0 0.0
2017-Aug-13 22:30N 51°55' E 004°29'0 0.0
2017-Aug-13 22:00N 51°55' E 004°29'0 0.0
2017-Aug-13 21:30N 51°55' E 004°29'0 0.0
2017-Aug-13 21:00N 51°55' E 004°29'0 0.0
2017-Aug-13 20:30N 51°55' E 004°29'0 0.0
2017-Aug-13 20:00N 51°55' E 004°29'0 0.0
2017-Aug-13 19:30N 51°55' E 004°29'0 0.0
2017-Aug-13 19:00N 51°55' E 004°29'0 0.0
2017-Aug-13 18:30N 51°55' E 004°29'0 0.0
2017-Aug-13 18:00N 51°55' E 004°29'0 0.0
2017-Aug-13 17:30N 51°55' E 004°29'0 0.0
2017-Aug-13 17:00N 51°55' E 004°29'0 0.0
2017-Aug-13 16:30N 51°55' E 004°29'0 0.0
2017-Aug-13 16:00N 51°55' E 004°29'0 0.0
2017-Aug-13 15:30N 51°55' E 004°29'0 0.0
2017-Aug-13 15:00N 51°55' E 004°29'0 0.0
2017-Aug-13 14:30N 51°55' E 004°29'0 0.0
2017-Aug-13 14:00N 51°55' E 004°29'0 0.0
2017-Aug-13 13:30N 51°55' E 004°29'0 0.0
2017-Aug-13 13:00N 51°55' E 004°29'0 0.0
2017-Aug-13 12:30N 51°55' E 004°29'0 0.0
2017-Aug-13 12:00N 51°55' E 004°29'0 0.0
2017-Aug-13 11:30N 51°55' E 004°29'0 0.0
2017-Aug-13 11:00N 51°55' E 004°29'0 0.0
2017-Aug-13 10:30N 51°55' E 004°29'0 0.0
2017-Aug-13 10:00N 51°55' E 004°29'0 0.0
2017-Aug-13 09:30N 51°55' E 004°29'0 0.0
2017-Aug-13 09:00N 51°55' E 004°29'0 0.0
2017-Aug-13 08:30N 51°55' E 004°29'0 0.0
2017-Aug-13 08:00N 51°55' E 004°29'0 0.0
2017-Aug-13 07:30N 51°55' E 004°29'0 0.0
2017-Aug-13 07:00N 51°55' E 004°29'0 0.0
2017-Aug-13 06:30N 51°55' E 004°29'0 0.0
2017-Aug-13 06:00N 51°55' E 004°29'0 0.0
2017-Aug-13 05:30N 51°55' E 004°29'0 0.0
2017-Aug-13 05:00N 51°55' E 004°29'0 0.0
2017-Aug-13 04:30N 51°55' E 004°29'0 0.0
2017-Aug-13 04:00N 51°55' E 004°29'0 0.0
2017-Aug-13 03:30N 51°55' E 004°29'0 0.0
2017-Aug-13 03:00N 51°55' E 004°29'0 0.0
2017-Aug-13 02:30N 51°55' E 004°29'0 0.0
2017-Aug-13 02:00N 51°55' E 004°29'0 0.0
2017-Aug-13 01:30N 51°55' E 004°29'0 0.0
2017-Aug-13 01:00N 51°55' E 004°29'0 0.0
2017-Aug-13 00:30N 51°55' E 004°29'0 0.0
2017-Aug-13 00:00N 51°55' E 004°29'0 0.0
2017-Aug-12 23:30N 51°55' E 004°29'0 0.0
2017-Aug-12 23:00N 51°55' E 004°29'0 0.0
2017-Aug-12 22:30N 51°55' E 004°29'0 0.0
2017-Aug-12 22:00N 51°55' E 004°29'0 0.0
2017-Aug-12 21:30N 51°55' E 004°29'0 0.0
2017-Aug-12 21:00N 51°55' E 004°29'0 0.0
2017-Aug-12 20:30N 51°55' E 004°29'0 0.0
2017-Aug-12 20:00N 51°55' E 004°29'0 0.0
2017-Aug-12 19:30N 51°55' E 004°29'0 0.0
2017-Aug-12 19:00N 51°55' E 004°29'0 0.0
2017-Aug-12 18:30N 51°55' E 004°29'0 0.0
2017-Aug-12 18:00N 51°55' E 004°29'0 0.0
2017-Aug-12 17:30N 51°55' E 004°29'0 0.0
2017-Aug-12 17:00N 51°55' E 004°29'0 0.0
2017-Aug-12 16:30N 51°55' E 004°29'0 0.0
2017-Aug-12 16:00N 51°55' E 004°29'0 0.0
2017-Aug-12 15:30N 51°55' E 004°29'0 0.0
2017-Aug-12 15:00N 51°55' E 004°29'0 0.0
2017-Aug-12 14:30N 51°55' E 004°29'0 0.0
2017-Aug-12 14:00N 51°55' E 004°29'0 0.0
2017-Aug-12 13:30N 51°55' E 004°29'0 0.0
2017-Aug-12 13:00N 51°55' E 004°29'0 0.0
2017-Aug-12 12:30N 51°55' E 004°29'0 0.0
2017-Aug-12 12:00N 51°55' E 004°29'0 0.0
2017-Aug-12 11:30N 51°55' E 004°29'0 0.0
2017-Aug-12 11:00N 51°55' E 004°29'0 0.0
2017-Aug-12 10:30N 51°55' E 004°29'0 0.0
2017-Aug-12 10:00N 51°55' E 004°29'0 0.0
2017-Aug-12 09:30N 51°55' E 004°29'0 0.0
2017-Aug-12 09:00N 51°55' E 004°29'0 0.0
2017-Aug-12 08:30N 51°55' E 004°29'0 0.0
2017-Aug-12 08:00N 51°55' E 004°29'0 0.0
2017-Aug-12 07:30N 51°55' E 004°29'0 0.0
2017-Aug-12 07:00N 51°55' E 004°29'0 0.0
2017-Aug-12 06:30N 51°55' E 004°29'0 0.0
2017-Aug-12 06:00N 51°55' E 004°29'0 0.0
2017-Aug-12 05:30N 51°55' E 004°29'0 0.0
2017-Aug-12 05:00N 51°55' E 004°29'0 0.0
2017-Aug-12 04:30N 51°55' E 004°29'0 0.0
2017-Aug-12 04:00N 51°55' E 004°29'0 0.0
2017-Aug-12 03:30N 51°55' E 004°29'0 0.0
2017-Aug-12 03:00N 51°55' E 004°29'0 0.0
2017-Aug-12 02:30N 51°55' E 004°29'0 0.0
2017-Aug-12 02:00N 51°55' E 004°29'0 0.0
2017-Aug-12 01:30N 51°55' E 004°29'0 0.0
2017-Aug-12 01:00N 51°55' E 004°29'0 0.0
2017-Aug-12 00:30N 51°55' E 004°29'0 0.0
2017-Aug-12 00:00N 51°55' E 004°29'0 0.0
2017-Aug-11 23:30N 51°55' E 004°29'0 0.0
2017-Aug-11 23:00N 51°55' E 004°29'0 0.0
2017-Aug-11 22:30N 51°55' E 004°29'0 0.0
2017-Aug-11 22:00N 51°55' E 004°29'0 0.0
2017-Aug-11 21:30N 51°55' E 004°29'0 0.0
2017-Aug-11 21:00N 51°55' E 004°29'0 0.0
2017-Aug-11 20:30N 51°55' E 004°29'0 0.0
2017-Aug-11 20:00N 51°55' E 004°29'0 0.0
2017-Aug-11 19:30N 51°55' E 004°29'0 0.0
2017-Aug-11 19:00N 51°55' E 004°29'0 0.0
2017-Aug-11 18:30N 51°55' E 004°29'0 0.0
2017-Aug-11 18:00N 51°55' E 004°29'0 0.0
2017-Aug-11 17:30N 51°55' E 004°29'0 0.0
2017-Aug-11 17:00N 51°55' E 004°29'0 0.0
2017-Aug-11 16:30N 51°55' E 004°29'0 0.0
2017-Aug-11 16:00N 51°55' E 004°29'0 0.0
2017-Aug-11 15:30N 51°55' E 004°29'0 0.0
2017-Aug-11 15:00N 51°55' E 004°29'0 0.0
2017-Aug-11 14:30N 51°55' E 004°29'0 0.0
2017-Aug-11 13:30N 51°55' E 004°29'0 0.0
2017-Aug-11 13:00N 51°55' E 004°29'0 0.0
2017-Aug-11 12:30N 51°55' E 004°29'0 0.0
2017-Aug-11 12:00N 51°55' E 004°29'0 0.0
2017-Aug-11 11:30N 51°55' E 004°29'0 0.0
2017-Aug-11 11:00N 51°55' E 004°29'0 0.0
2017-Aug-11 10:30N 51°55' E 004°29'0 0.0
2017-Aug-11 10:00N 51°55' E 004°29'0 0.0
2017-Aug-11 09:30N 51°55' E 004°29'0 0.0
2017-Aug-11 09:00N 51°55' E 004°29'0 0.0
2017-Aug-11 08:30N 51°55' E 004°29'0 0.0
2017-Aug-11 08:00N 51°55' E 004°29'0 0.0
2017-Aug-11 07:30N 51°55' E 004°29'0 0.0
2017-Aug-11 07:01N 51°55' E 004°29'0 0.0
2017-Aug-11 06:30N 51°55' E 004°29'0 0.0
2017-Aug-11 06:00N 51°55' E 004°29'0 0.0
2017-Aug-11 05:31N 51°55' E 004°29'0 0.0
2017-Aug-11 05:00N 51°55' E 004°29'0 0.0
2017-Aug-11 04:31N 51°55' E 004°29'0 0.0
2017-Aug-11 04:01N 51°55' E 004°29'0 0.0
2017-Aug-11 03:31N 51°55' E 004°29'0 0.0
2017-Aug-11 03:01N 51°55' E 004°29'0 0.0
2017-Aug-11 02:31N 51°55' E 004°29'  
Track history (hours):
 
Tides and Currents Weather Stations Pressure Air Temp Water Temp Dewpoint Dewpoint Depression Visibility Wind Speed Wind Dir Waves Ship Positions

Audrey

Last reported at 2017-Aug-21 02:30 UTC. Time now 2017-Aug-21 02:43 UTC.
Position N 47°33' E 007°39'.

Length 85 m; draft 1.5 m.

Type: Wing in ground effect craft. MMSI: 244660106.

Date/timePositionNaut miles runAvg speedWind from/ knotsBaromVisibWave heightAir tempDewpointWater temp
2017-Aug-21 02:30N 47°33' E 007°39'0 0.0
2017-Aug-21 02:00N 47°33' E 007°39'0 0.0
2017-Aug-21 01:30N 47°33' E 007°39'0 0.0
2017-Aug-21 01:00N 47°33' E 007°39'0 0.0
2017-Aug-21 00:30N 47°33' E 007°39'0 0.0
2017-Aug-21 00:00N 47°33' E 007°39'0 0.0
2017-Aug-20 23:30N 47°33' E 007°39'0 0.0
2017-Aug-20 23:00N 47°33' E 007°39'0 0.0
2017-Aug-20 22:30N 47°33' E 007°39'0 0.0
2017-Aug-20 22:00N 47°33' E 007°39'0 0.0
2017-Aug-20 21:30N 47°33' E 007°39'0 0.0
2017-Aug-20 21:00N 47°33' E 007°39'0 0.0
2017-Aug-20 20:30N 47°33' E 007°39'0 0.0
2017-Aug-20 20:00N 47°33' E 007°39'0 0.0
2017-Aug-20 19:30N 47°33' E 007°39'0 0.0
2017-Aug-20 19:00N 47°33' E 007°39'0 0.0
2017-Aug-20 18:30N 47°33' E 007°39'0 0.0
2017-Aug-20 18:00N 47°33' E 007°39'0 0.0
2017-Aug-20 17:30N 47°33' E 007°39'0 0.0
2017-Aug-20 17:00N 47°33' E 007°39'0 0.0
2017-Aug-20 16:30N 47°33' E 007°39'0 0.0
2017-Aug-20 16:00N 47°33' E 007°39'0 0.0
2017-Aug-20 15:30N 47°33' E 007°39'0 0.0
2017-Aug-20 15:00N 47°33' E 007°39'0 0.0
2017-Aug-20 14:30N 47°33' E 007°39'0 0.0
2017-Aug-20 14:00N 47°33' E 007°39'0 0.0
2017-Aug-20 13:30N 47°33' E 007°39'0 0.0
2017-Aug-20 13:00N 47°33' E 007°39'0 0.0
2017-Aug-20 12:30N 47°33' E 007°39'0 0.0
2017-Aug-20 12:00N 47°33' E 007°39'0 0.0
2017-Aug-20 11:30N 47°33' E 007°39'0 0.0
2017-Aug-20 11:00N 47°33' E 007°39'0 0.0
2017-Aug-20 10:30N 47°33' E 007°39'0 0.0
2017-Aug-20 10:00N 47°33' E 007°39'0 0.0
2017-Aug-20 09:30N 47°33' E 007°39'0 0.0
2017-Aug-20 09:00N 47°33' E 007°39'0 0.0
2017-Aug-20 08:30N 47°33' E 007°39'0 0.0
2017-Aug-20 08:00N 47°33' E 007°39'0 0.0
2017-Aug-20 07:30N 47°33' E 007°39'0 0.0
2017-Aug-20 07:00N 47°33' E 007°39'0 0.0
2017-Aug-20 06:30N 47°33' E 007°39'0 0.0
2017-Aug-20 06:00N 47°33' E 007°39'0 0.0
2017-Aug-20 05:30N 47°33' E 007°39'0 0.0
2017-Aug-20 05:00N 47°33' E 007°39'0 0.0
2017-Aug-20 04:30N 47°33' E 007°39'0 0.0
2017-Aug-20 04:00N 47°33' E 007°39'0 0.0
2017-Aug-20 03:30N 47°33' E 007°39'0 0.0
2017-Aug-20 03:00N 47°33' E 007°39'0 0.0
2017-Aug-20 02:30N 47°33' E 007°39'0 0.0
2017-Aug-20 02:00N 47°33' E 007°39'0 0.0
2017-Aug-20 01:30N 47°33' E 007°39'0 0.0
2017-Aug-20 01:00N 47°33' E 007°39'0 0.0
2017-Aug-20 00:30N 47°33' E 007°39'0 0.0
2017-Aug-20 00:00N 47°33' E 007°39'0 0.0
2017-Aug-19 23:30N 47°33' E 007°39'0 0.0
2017-Aug-19 23:00N 47°33' E 007°39'0 0.0
2017-Aug-19 22:30N 47°33' E 007°39'0 0.0
2017-Aug-19 22:00N 47°33' E 007°39'0 0.0
2017-Aug-19 21:30N 47°33' E 007°39'0 0.0
2017-Aug-19 21:00N 47°33' E 007°39'0 0.0
2017-Aug-19 20:30N 47°33' E 007°39'0 0.0
2017-Aug-19 20:00N 47°33' E 007°39'0 0.0
2017-Aug-19 19:30N 47°33' E 007°39'0 0.0
2017-Aug-19 19:00N 47°33' E 007°39'0 0.0
2017-Aug-19 18:30N 47°33' E 007°39'0 0.0
2017-Aug-19 18:00N 47°33' E 007°39'0 0.0
2017-Aug-19 17:30N 47°33' E 007°39'0 0.0
2017-Aug-19 17:00N 47°33' E 007°39'1 1.1
2017-Aug-19 16:30N 47°33' E 007°39'1 2.3
2017-Aug-19 16:00N 47°33' E 007°37'2 4.2
2017-Aug-19 15:30N 47°35' E 007°35'4 8.0
2017-Aug-19 15:00N 47°39' E 007°32'100 3.2
2017-Aug-18 08:01N 49°12' E 008°23'0 5.6
2017-Aug-18 08:00N 49°13' E 008°23'100 2.5
2017-Aug-16 15:49N 50°41' E 007°11'3 5.7
2017-Aug-16 15:20N 50°43' E 007°08'2 5.8
2017-Aug-16 15:00N 50°45' E 007°06'6 5.8
2017-Aug-16 14:02N 50°49' E 007°01'2 5.2
2017-Aug-16 13:43N 50°50' E 006°59'2 5.6
2017-Aug-16 13:25N 50°51' E 007°01'2 4.5
2017-Aug-16 12:53N 50°54' E 007°02'2 5.5
2017-Aug-16 12:30N 50°54' E 006°59'3 6.0
2017-Aug-16 11:59N 50°57' E 006°59'10 4.6
2017-Aug-16 09:57N 51°06' E 006°53'3 5.7
2017-Aug-16 09:28N 51°09' E 006°51'1 2.5
2017-Aug-16 08:59N 51°09' E 006°49'2 4.7
2017-Aug-16 08:30N 51°11' E 006°48'3 5.2
2017-Aug-16 08:00N 51°12' E 006°44'2 3.3
2017-Aug-16 07:30N 51°13' E 006°45'2 4.3
2017-Aug-16 07:00N 51°15' E 006°44'4 4.8
2017-Aug-16 06:17N 51°19' E 006°44'3 5.7
2017-Aug-16 05:41N 51°21' E 006°40'2 4.1
2017-Aug-16 05:19N 51°22' E 006°41'2 5.7
2017-Aug-16 05:00N 51°23' E 006°44'3 5.3
2017-Aug-16 04:30N 51°26' E 006°43'3 5.3
2017-Aug-16 04:00N 51°28' E 006°42'2 3.2
2017-Aug-16 03:30N 51°30' E 006°43'2 4.0
2017-Aug-16 03:00N 51°32' E 006°41'0 0.0
2017-Aug-16 02:30N 51°32' E 006°41'0 0.0
2017-Aug-16 02:00N 51°32' E 006°41'0 0.0
2017-Aug-16 01:30N 51°32' E 006°41'0 0.0
2017-Aug-16 01:00N 51°32' E 006°41'0 0.0
2017-Aug-16 00:30N 51°32' E 006°41'0 0.0
2017-Aug-16 00:00N 51°32' E 006°41'0 0.0
2017-Aug-15 23:30N 51°32' E 006°41'0 0.0
2017-Aug-15 23:00N 51°32' E 006°41'0 0.0
2017-Aug-15 22:30N 51°32' E 006°41'0 0.0
2017-Aug-15 22:00N 51°32' E 006°41'0 0.0
2017-Aug-15 21:30N 51°32' E 006°41'0 0.0
2017-Aug-15 21:00N 51°32' E 006°41'0 0.0
2017-Aug-15 20:30N 51°32' E 006°41'0 0.0
2017-Aug-15 20:00N 51°32' E 006°41'0 0.0
2017-Aug-15 19:30N 51°32' E 006°41'1 1.6
2017-Aug-15 19:00N 51°32' E 006°41'3 3.8
2017-Aug-15 18:18N 51°34' E 006°37'2 5.3
2017-Aug-15 17:59N 51°35' E 006°36'3 6.3
2017-Aug-15 17:29N 51°39' E 006°36'3 6.0
2017-Aug-15 16:59N 51°40' E 006°32'3 5.7
2017-Aug-15 16:29N 51°41' E 006°28'3 6.3
2017-Aug-15 16:00N 51°43' E 006°24'2 4.5
2017-Aug-15 15:30N 51°45' E 006°22'3 6.1
2017-Aug-15 15:00N 51°47' E 006°19'3 6.9
2017-Aug-15 14:30N 51°50' E 006°15'3 6.9
2017-Aug-15 14:00N 51°51' E 006°09'4 7.1
2017-Aug-15 13:30N 51°52' E 006°04'3 6.0
2017-Aug-15 13:00N 51°52' E 005°59'3 5.7
2017-Aug-15 12:30N 51°52' E 005°55'3 5.8
2017-Aug-15 12:00N 51°52' E 005°50'4 7.1
2017-Aug-15 11:30N 51°53' E 005°45'4 7.2
2017-Aug-15 11:00N 51°54' E 005°39'4 7.3
2017-Aug-15 10:29N 51°54' E 005°33'3 7.3
2017-Aug-15 10:00N 51°53' E 005°27'4 7.3
2017-Aug-15 09:30N 51°50' E 005°24'3 5.9
2017-Aug-15 09:00N 51°49' E 005°20'3 6.8
2017-Aug-15 08:30N 51°49' E 005°14'4 7.2
2017-Aug-15 08:00N 51°49' E 005°09'4 7.2
2017-Aug-15 07:30N 51°49' E 005°03'4 8.5
2017-Aug-15 07:00N 51°50' E 004°56'4 8.3
2017-Aug-15 06:30N 51°49' E 004°49'4 8.2
2017-Aug-15 06:01N 51°49' E 004°43'4 8.5
2017-Aug-15 05:30N 51°48' E 004°36'4 7.8
2017-Aug-15 05:00N 51°50' E 004°30'4 8.0
2017-Aug-15 04:30N 51°51' E 004°24'4 7.8
2017-Aug-15 04:00N 51°52' E 004°18'3 6.2
2017-Aug-15 03:30N 51°54' E 004°14'0 0.7
2017-Aug-15 03:00N 51°54' E 004°14'0 0.0
2017-Aug-15 02:30N 51°54' E 004°14'0 0.0
2017-Aug-15 02:00N 51°54' E 004°14'0 0.0
2017-Aug-15 01:30N 51°54' E 004°14'0 0.0
2017-Aug-15 01:00N 51°54' E 004°14'0 0.0
2017-Aug-15 00:30N 51°54' E 004°14'0 0.0
2017-Aug-15 00:00N 51°54' E 004°14'0 0.0
2017-Aug-14 23:30N 51°54' E 004°14'0 0.0
2017-Aug-14 23:00N 51°54' E 004°14'0 0.0
2017-Aug-14 22:30N 51°54' E 004°14'0 0.0
2017-Aug-14 22:00N 51°54' E 004°14'0 0.0
2017-Aug-14 21:30N 51°54' E 004°14'0 0.0
2017-Aug-14 21:00N 51°54' E 004°14'0 0.0
2017-Aug-14 20:30N 51°54' E 004°14'0 0.0
2017-Aug-14 20:00N 51°54' E 004°14'0 0.0
2017-Aug-14 19:30N 51°54' E 004°14'0 0.0
2017-Aug-14 19:00N 51°54' E 004°14'0 0.0
2017-Aug-14 18:30N 51°54' E 004°14'0 0.0
2017-Aug-14 18:00N 51°54' E 004°14'0 0.0
2017-Aug-14 17:30N 51°54' E 004°14'0 0.0
2017-Aug-14 17:00N 51°54' E 004°14'0 0.0
2017-Aug-14 16:30N 51°54' E 004°14'0 0.0
2017-Aug-14 16:00N 51°54' E 004°14'0 0.0
2017-Aug-14 15:30N 51°54' E 004°14'0 0.8
2017-Aug-14 15:00N 51°54' E 004°14'3 6.0
2017-Aug-14 14:30N 51°52' E 004°18'3 5.5
2017-Aug-14 14:00N 51°54' E 004°21'4 8.4
2017-Aug-14 13:30N 51°54' E 004°28'1 2.2
2017-Aug-14 13:00N 51°55' E 004°29'0 0.0
2017-Aug-14 12:30N 51°55' E 004°29'0 0.0
2017-Aug-14 12:00N 51°55' E 004°29'0 0.0
2017-Aug-14 11:30N 51°55' E 004°29'0 0.0
2017-Aug-14 11:00N 51°55' E 004°29'0 0.0
2017-Aug-14 10:30N 51°55' E 004°29'0 0.0
2017-Aug-14 10:00N 51°55' E 004°29'0 0.0
2017-Aug-14 09:30N 51°55' E 004°29'0 0.0
2017-Aug-14 09:00N 51°55' E 004°29'0 0.0
2017-Aug-14 08:30N 51°55' E 004°29'0 0.0
2017-Aug-14 08:00N 51°55' E 004°29'0 0.0
2017-Aug-14 07:30N 51°55' E 004°29'0 0.0
2017-Aug-14 07:00N 51°55' E 004°29'0 0.0
2017-Aug-14 06:30N 51°55' E 004°29'0 0.0
2017-Aug-14 06:00N 51°55' E 004°29'0 0.0
2017-Aug-14 05:30N 51°55' E 004°29'0 0.0
2017-Aug-14 05:00N 51°55' E 004°29'0 0.0
2017-Aug-14 04:30N 51°55' E 004°29'0 0.0
2017-Aug-14 04:00N 51°55' E 004°29'0 0.0
2017-Aug-14 03:30N 51°55' E 004°29'0 0.0
2017-Aug-14 03:00N 51°55' E 004°29'0 0.0
2017-Aug-14 02:30N 51°55' E 004°29'0 0.0
2017-Aug-14 02:00N 51°55' E 004°29'0 0.0
2017-Aug-14 01:30N 51°55' E 004°29'0 0.0
2017-Aug-14 01:00N 51°55' E 004°29'0 0.0
2017-Aug-14 00:30N 51°55' E 004°29'0 0.0
2017-Aug-14 00:00N 51°55' E 004°29'0 0.0
2017-Aug-13 23:30N 51°55' E 004°29'0 0.0
2017-Aug-13 23:00N 51°55' E 004°29'0 0.0
2017-Aug-13 22:30N 51°55' E 004°29'0 0.0
2017-Aug-13 22:00N 51°55' E 004°29'0 0.0
2017-Aug-13 21:30N 51°55' E 004°29'0 0.0
2017-Aug-13 21:00N 51°55' E 004°29'0 0.0
2017-Aug-13 20:30N 51°55' E 004°29'0 0.0
2017-Aug-13 20:00N 51°55' E 004°29'0 0.0
2017-Aug-13 19:30N 51°55' E 004°29'0 0.0
2017-Aug-13 19:00N 51°55' E 004°29'0 0.0
2017-Aug-13 18:30N 51°55' E 004°29'0 0.0
2017-Aug-13 18:00N 51°55' E 004°29'0 0.0
2017-Aug-13 17:30N 51°55' E 004°29'0 0.0
2017-Aug-13 17:00N 51°55' E 004°29'0 0.0
2017-Aug-13 16:30N 51°55' E 004°29'0 0.0
2017-Aug-13 16:00N 51°55' E 004°29'0 0.0
2017-Aug-13 15:30N 51°55' E 004°29'0 0.0
2017-Aug-13 15:00N 51°55' E 004°29'0 0.0
2017-Aug-13 14:30N 51°55' E 004°29'0 0.0
2017-Aug-13 14:00N 51°55' E 004°29'0 0.0
2017-Aug-13 13:30N 51°55' E 004°29'0 0.0
2017-Aug-13 13:00N 51°55' E 004°29'0 0.0
2017-Aug-13 12:30N 51°55' E 004°29'0 0.0
2017-Aug-13 12:00N 51°55' E 004°29'0 0.0
2017-Aug-13 11:30N 51°55' E 004°29'0 0.0
2017-Aug-13 11:00N 51°55' E 004°29'0 0.0
2017-Aug-13 10:30N 51°55' E 004°29'0 0.0
2017-Aug-13 10:00N 51°55' E 004°29'0 0.0
2017-Aug-13 09:30N 51°55' E 004°29'0 0.0
2017-Aug-13 09:00N 51°55' E 004°29'0 0.0
2017-Aug-13 08:30N 51°55' E 004°29'0 0.0
2017-Aug-13 08:00N 51°55' E 004°29'0 0.0
2017-Aug-13 07:30N 51°55' E 004°29'0 0.0
2017-Aug-13 07:00N 51°55' E 004°29'0 0.0
2017-Aug-13 06:30N 51°55' E 004°29'0 0.0
2017-Aug-13 06:00N 51°55' E 004°29'0 0.0
2017-Aug-13 05:30N 51°55' E 004°29'0 0.0
2017-Aug-13 05:00N 51°55' E 004°29'0 0.0
2017-Aug-13 04:30N 51°55' E 004°29'0 0.0
2017-Aug-13 04:00N 51°55' E 004°29'0 0.0
2017-Aug-13 03:30N 51°55' E 004°29'0 0.0
2017-Aug-13 03:00N 51°55' E 004°29'0 0.0
2017-Aug-13 02:30N 51°55' E 004°29'0 0.0
2017-Aug-13 02:00N 51°55' E 004°29'0 0.0
2017-Aug-13 01:30N 51°55' E 004°29'0 0.0
2017-Aug-13 01:00N 51°55' E 004°29'0 0.0
2017-Aug-13 00:30N 51°55' E 004°29'0 0.0
2017-Aug-13 00:00N 51°55' E 004°29'0 0.0
2017-Aug-12 23:30N 51°55' E 004°29'0 0.0
2017-Aug-12 23:00N 51°55' E 004°29'0 0.0
2017-Aug-12 22:30N 51°55' E 004°29'0 0.0
2017-Aug-12 22:00N 51°55' E 004°29'0 0.0
2017-Aug-12 21:30N 51°55' E 004°29'0 0.0
2017-Aug-12 21:00N 51°55' E 004°29'0 0.0
2017-Aug-12 20:30N 51°55' E 004°29'0 0.0
2017-Aug-12 20:00N 51°55' E 004°29'0 0.0
2017-Aug-12 19:30N 51°55' E 004°29'0 0.0
2017-Aug-12 19:00N 51°55' E 004°29'0 0.0
2017-Aug-12 18:30N 51°55' E 004°29'0 0.0
2017-Aug-12 18:00N 51°55' E 004°29'0 0.0
2017-Aug-12 17:30N 51°55' E 004°29'0 0.0
2017-Aug-12 17:00N 51°55' E 004°29'0 0.0
2017-Aug-12 16:30N 51°55' E 004°29'0 0.0
2017-Aug-12 16:00N 51°55' E 004°29'0 0.0
2017-Aug-12 15:30N 51°55' E 004°29'0 0.0
2017-Aug-12 15:00N 51°55' E 004°29'0 0.0
2017-Aug-12 14:30N 51°55' E 004°29'0 0.0
2017-Aug-12 14:00N 51°55' E 004°29'0 0.0
2017-Aug-12 13:30N 51°55' E 004°29'0 0.0
2017-Aug-12 13:00N 51°55' E 004°29'0 0.0
2017-Aug-12 12:30N 51°55' E 004°29'0 0.0
2017-Aug-12 12:00N 51°55' E 004°29'0 0.0
2017-Aug-12 11:30N 51°55' E 004°29'0 0.0
2017-Aug-12 11:00N 51°55' E 004°29'0 0.0
2017-Aug-12 10:30N 51°55' E 004°29'0 0.0
2017-Aug-12 10:00N 51°55' E 004°29'0 0.0
2017-Aug-12 09:30N 51°55' E 004°29'0 0.0
2017-Aug-12 09:00N 51°55' E 004°29'0 0.0
2017-Aug-12 08:30N 51°55' E 004°29'0 0.0
2017-Aug-12 08:00N 51°55' E 004°29'0 0.0
2017-Aug-12 07:30N 51°55' E 004°29'0 0.0
2017-Aug-12 07:00N 51°55' E 004°29'0 0.0
2017-Aug-12 06:30N 51°55' E 004°29'0 0.0
2017-Aug-12 06:00N 51°55' E 004°29'0 0.0
2017-Aug-12 05:30N 51°55' E 004°29'0 0.0
2017-Aug-12 05:00N 51°55' E 004°29'0 0.0
2017-Aug-12 04:30N 51°55' E 004°29'0 0.0
2017-Aug-12 04:00N 51°55' E 004°29'0 0.0
2017-Aug-12 03:30N 51°55' E 004°29'0 0.0
2017-Aug-12 03:00N 51°55' E 004°29'0 0.0
2017-Aug-12 02:30N 51°55' E 004°29'0 0.0
2017-Aug-12 02:00N 51°55' E 004°29'0 0.0
2017-Aug-12 01:30N 51°55' E 004°29'0 0.0
2017-Aug-12 01:00N 51°55' E 004°29'0 0.0
2017-Aug-12 00:30N 51°55' E 004°29'0 0.0
2017-Aug-12 00:00N 51°55' E 004°29'0 0.0
2017-Aug-11 23:30N 51°55' E 004°29'0 0.0
2017-Aug-11 23:00N 51°55' E 004°29'0 0.0
2017-Aug-11 22:30N 51°55' E 004°29'0 0.0
2017-Aug-11 22:00N 51°55' E 004°29'0 0.0
2017-Aug-11 21:30N 51°55' E 004°29'0 0.0
2017-Aug-11 21:00N 51°55' E 004°29'0 0.0
2017-Aug-11 20:30N 51°55' E 004°29'0 0.0
2017-Aug-11 20:00N 51°55' E 004°29'0 0.0
2017-Aug-11 19:30N 51°55' E 004°29'0 0.0
2017-Aug-11 19:00N 51°55' E 004°29'0 0.0
2017-Aug-11 18:30N 51°55' E 004°29'0 0.0
2017-Aug-11 18:00N 51°55' E 004°29'0 0.0
2017-Aug-11 17:30N 51°55' E 004°29'0 0.0
2017-Aug-11 17:00N 51°55' E 004°29'0 0.0
2017-Aug-11 16:30N 51°55' E 004°29'0 0.0
2017-Aug-11 16:00N 51°55' E 004°29'0 0.0
2017-Aug-11 15:30N 51°55' E 004°29'0 0.0
2017-Aug-11 15:00N 51°55' E 004°29'0 0.0
2017-Aug-11 14:30N 51°55' E 004°29'0 0.0
2017-Aug-11 13:30N 51°55' E 004°29'0 0.0
2017-Aug-11 13:00N 51°55' E 004°29'0 0.0
2017-Aug-11 12:30N 51°55' E 004°29'0 0.0
2017-Aug-11 12:00N 51°55' E 004°29'0 0.0
2017-Aug-11 11:30N 51°55' E 004°29'0 0.0
2017-Aug-11 11:00N 51°55' E 004°29'0 0.0
2017-Aug-11 10:30N 51°55' E 004°29'0 0.0
2017-Aug-11 10:00N 51°55' E 004°29'0 0.0
2017-Aug-11 09:30N 51°55' E 004°29'0 0.0
2017-Aug-11 09:00N 51°55' E 004°29'0 0.0
2017-Aug-11 08:30N 51°55' E 004°29'0 0.0
2017-Aug-11 08:00N 51°55' E 004°29'0 0.0
2017-Aug-11 07:30N 51°55' E 004°29'0 0.0
2017-Aug-11 07:01N 51°55' E 004°29'0 0.0
2017-Aug-11 06:30N 51°55' E 004°29'0 0.0
2017-Aug-11 06:00N 51°55' E 004°29'0 0.0
2017-Aug-11 05:31N 51°55' E 004°29'0 0.0
2017-Aug-11 05:00N 51°55' E 004°29'0 0.0
2017-Aug-11 04:31N 51°55' E 004°29'0 0.0
2017-Aug-11 04:01N 51°55' E 004°29'0 0.0
2017-Aug-11 03:31N 51°55' E 004°29'0 0.0
2017-Aug-11 03:01N 51°55' E 004°29'0 0.0
2017-Aug-11 02:31N 51°55' E 004°29'  

Dump ship's entire track history